Time;durP1;ratioP1;P1;durP2;ratioP2;P2;SDS_P1;SDS_P2;PMS_P1;PMS_P2;Temp;Humidity;BMP_temperature;BMP_pressure;BME280_temperature;BME280_humidity;BME280_pressure;Samples;Min_cycle;Max_cycle;Signal;HPM_P1;HPM_P2
2021/06/11 00:01:56;;;;;;;6.15;3.58;;;;;;;20.17;69.99;100618.31;4779815;30;20066;-78
2021/06/11 00:05:01;;;;;;;9.27;3.90;;;;;;;20.13;69.92;100615.09;4790899;30;20072;-80
2021/06/11 00:08:06;;;;;;;6.68;3.90;;;;;;;20.06;70.30;100617.75;4790857;30;20063;-75
2021/06/11 00:11:10;;;;;;;4.18;3.78;;;;;;;19.98;69.98;100615.13;4779486;30;20070;-76
2021/06/11 00:14:15;;;;;;;6.40;4.18;;;;;;;19.94;70.49;100627.44;4790708;30;20058;-78
2021/06/11 00:17:20;;;;;;;6.45;3.70;;;;;;;19.91;70.33;100618.78;4790749;30;20111;-77
2021/06/11 00:20:25;;;;;;;6.45;4.10;;;;;;;19.88;70.46;100622.72;4790859;30;20082;-79
2021/06/11 00:23:30;;;;;;;9.10;4.05;;;;;;;19.87;70.38;100625.66;4779394;30;20498;-76
2021/06/11 00:26:42;;;;;;;7.47;4.00;;;;;;;19.84;70.23;100621.44;4789404;30;20062;-77
2021/06/11 00:29:46;;;;;;;7.72;4.28;;;;;;;19.85;70.09;100625.00;4790421;30;20490;-78
2021/06/11 00:32:51;;;;;;;6.78;4.10;;;;;;;19.83;69.93;100617.00;4790410;30;20058;-80
2021/06/11 00:35:55;;;;;;;8.05;4.00;;;;;;;19.80;69.78;100620.09;4790332;30;20051;-79
2021/06/11 00:38:59;;;;;;;7.68;4.32;;;;;;;19.79;70.00;100614.84;4790248;30;20070;-78
2021/06/11 00:42:05;;;;;;;5.63;4.35;;;;;;;19.81;69.84;100619.06;4790282;30;20050;-81
2021/06/11 00:45:10;;;;;;;4.82;4.03;;;;;;;19.83;69.45;100619.72;4779055;30;20078;-79
2021/06/11 00:48:15;;;;;;;5.55;4.30;;;;;;;19.83;69.45;100622.44;4788847;29;20547;-80
2021/06/11 00:51:21;;;;;;;4.47;4.07;;;;;;;19.85;69.25;100625.81;4790064;30;20051;-78
2021/06/11 00:54:26;;;;;;;5.85;4.28;;;;;;;19.82;69.57;100620.78;4790250;30;20059;-79
2021/06/11 00:57:31;;;;;;;6.57;4.40;;;;;;;19.70;69.60;100611.34;4788894;30;20400;-79
2021/06/11 01:00:35;;;;;;;8.20;4.50;;;;;;;19.67;69.99;100611.75;4778808;30;20047;-81
2021/06/11 01:03:40;;;;;;;6.40;4.35;;;;;;;19.61;70.25;100607.03;4789803;30;20054;-76
2021/06/11 01:06:48;;;;;;;7.10;4.68;;;;;;;19.66;70.25;100611.91;4777752;30;20062;-82
2021/06/11 01:09:54;;;;;;;11.45;4.13;;;;;;;19.69;70.13;100603.38;4790006;30;20070;-76
2021/06/11 01:12:59;;;;;;;6.82;4.68;;;;;;;19.68;70.26;100612.56;4778704;30;20058;-76
2021/06/11 01:16:04;;;;;;;5.63;4.28;;;;;;;19.58;70.72;100601.13;4778618;30;20062;-79
2021/06/11 01:19:12;;;;;;;6.72;4.32;;;;;;;19.56;70.56;100609.47;4789843;30;20055;-79
2021/06/11 01:22:42;;;;;;;6.32;4.45;;;;;;;19.48;70.99;100609.56;4789527;30;20058;-77
2021/06/11 01:26:12;;;;;;;8.30;4.50;;;;;;;19.48;70.58;100607.69;4789712;30;20058;-77
2021/06/11 01:29:19;;;;;;;6.93;4.63;;;;;;;19.51;71.01;100608.34;4789185;30;20395;-80
2021/06/11 01:32:25;;;;;;;11.23;5.00;;;;;;;19.40;71.20;100601.50;4789413;30;20392;-78
2021/06/11 01:35:39;;;;;;;12.48;5.38;;;;;;;19.39;71.09;100607.94;4778364;30;20058;-78
2021/06/11 01:38:47;;;;;;;10.82;4.50;;;;;;;19.35;71.08;100598.44;4789101;30;20058;-79
2021/06/11 01:41:53;;;;;;;7.15;5.00;;;;;;;19.31;70.88;100591.66;4789229;30;20070;-81
2021/06/11 01:44:58;;;;;;;8.52;5.22;;;;;;;19.27;70.86;100598.50;4789202;30;20067;-76
2021/06/11 01:48:03;;;;;;;9.15;5.57;;;;;;;19.26;70.68;100607.69;4788593;30;20510;-76
2021/06/11 01:51:10;;;;;;;7.03;4.97;;;;;;;19.23;70.59;100605.38;4789399;30;20062;-78
2021/06/11 01:54:14;;;;;;;6.93;4.75;;;;;;;19.26;70.30;100596.81;4794808;29;20066;-80
2021/06/11 01:57:19;;;;;;;8.18;4.95;;;;;;;19.25;69.71;100590.53;4789290;30;20075;-77
2021/06/11 02:00:25;;;;;;;6.97;5.00;;;;;;;19.28;69.84;100595.59;4788668;30;20046;-78
2021/06/11 02:03:30;;;;;;;6.25;5.05;;;;;;;19.21;70.39;100600.09;4788916;30;20507;-77
2021/06/11 02:06:36;;;;;;;6.03;5.40;;;;;;;19.19;70.37;100598.56;4789074;30;20506;-80
2021/06/11 02:09:42;;;;;;;8.05;5.65;;;;;;;19.24;69.70;100604.31;4789208;30;20140;-77
2021/06/11 02:12:48;;;;;;;5.10;4.60;;;;;;;19.26;69.91;100604.97;4788908;30;20064;-77
2021/06/11 02:15:54;;;;;;;6.20;4.97;;;;;;;19.24;69.83;100599.72;4788872;30;20059;-78
2021/06/11 02:19:01;;;;;;;6.65;5.38;;;;;;;19.23;69.90;100606.19;4788867;30;20050;-79
2021/06/11 02:24:33;;;;;;;6.43;4.95;;;;;;;19.23;69.63;100608.91;4788234;30;20066;-77
2021/06/11 02:27:39;;;;;;;5.97;4.93;;;;;;;19.20;69.81;100606.59;4788557;30;20055;-77
2021/06/11 02:30:44;;;;;;;5.57;4.88;;;;;;;19.17;69.70;100606.09;4788800;30;20506;-76
2021/06/11 02:33:48;;;;;;;11.75;5.25;;;;;;;19.16;69.76;100604.41;4777667;30;20074;-82
2021/06/11 02:36:53;;;;;;;5.65;5.15;;;;;;;19.14;69.69;100603.72;4788759;30;20053;-76
2021/06/11 02:39:57;;;;;;;5.88;5.10;;;;;;;19.12;69.77;100597.63;4777680;30;20399;-79
2021/06/11 02:43:09;;;;;;;11.68;5.18;;;;;;;19.10;69.92;100594.25;4777507;30;20507;-79
2021/06/11 02:46:19;;;;;;;7.85;5.40;;;;;;;19.00;70.12;100594.50;4788640;30;20074;-77
2021/06/11 02:49:29;;;;;;;6.20;4.90;;;;;;;18.94;70.29;100597.94;4788633;30;20058;-80
2021/06/11 02:52:35;;;;;;;10.93;5.20;;;;;;;18.97;70.17;100602.19;4788818;30;20066;-78
2021/06/11 02:55:43;;;;;;;8.27;5.30;;;;;;;18.92;70.66;100601.88;4788345;30;20055;-77
2021/06/11 02:59:07;;;;;;;7.38;5.45;;;;;;;18.91;70.93;100600.19;4788543;30;20552;-76
2021/06/11 03:02:17;;;;;;;5.72;4.93;;;;;;;18.84;70.66;100590.03;4788675;30;20062;-81
2021/06/11 03:05:23;;;;;;;7.95;5.30;;;;;;;18.83;70.67;100595.66;4787938;30;20062;-79
2021/06/11 03:08:32;;;;;;;7.30;5.18;;;;;;;18.82;70.75;100602.97;4777113;30;20047;-75
2021/06/11 03:11:41;;;;;;;9.80;5.32;;;;;;;18.82;70.70;100597.53;4788756;29;20058;-77
2021/06/11 03:14:47;;;;;;;7.40;5.25;;;;;;;18.80;70.92;100596.03;4791530;30;20078;-79
2021/06/11 03:17:56;;;;;;;7.95;5.72;;;;;;;18.83;70.93;100609.28;4791755;30;20060;-81
2021/06/11 03:21:13;;;;;;;7.60;5.35;;;;;;;18.84;70.82;100595.47;4791314;30;20066;-77
2021/06/11 03:24:29;;;;;;;10.75;5.90;;;;;;;18.83;70.78;100607.41;4791557;30;20054;-77
2021/06/11 03:27:56;;;;;;;10.48;6.03;;;;;;;18.82;70.85;100602.13;4791790;30;20388;-77
2021/06/11 03:31:02;;;;;;;9.70;5.90;;;;;;;18.72;71.09;100605.09;4780356;30;20055;-80
2021/06/11 03:34:21;;;;;;;11.45;5.90;;;;;;;18.68;71.34;100600.19;4791401;30;20058;-76
2021/06/11 03:37:29;;;;;;;8.18;6.40;;;;;;;18.69;71.49;100593.72;4780275;30;20058;-79
2021/06/11 03:40:38;;;;;;;6.68;5.68;;;;;;;18.66;71.38;100602.25;4791567;30;20062;-75
2021/06/11 03:43:44;;;;;;;7.32;5.90;;;;;;;18.71;71.25;100600.66;4791225;30;20062;-80
2021/06/11 03:46:49;;;;;;;6.78;5.95;;;;;;;18.70;71.42;100600.84;4790883;30;20054;-78
2021/06/11 03:49:58;;;;;;;7.85;6.05;;;;;;;18.61;71.60;100583.78;4780324;30;20074;-76
2021/06/11 03:53:05;;;;;;;7.47;6.07;;;;;;;18.59;71.92;100593.13;4791122;30;20054;-78
2021/06/11 03:56:12;;;;;;;9.25;6.75;;;;;;;18.64;71.56;100593.44;4790835;30;20058;-77
2021/06/11 03:59:19;;;;;;;10.00;7.00;;;;;;;18.51;72.00;100602.19;4791004;30;20062;-82
2021/06/11 04:02:23;;;;;;;9.20;6.85;;;;;;;18.53;72.13;100602.00;4790892;30;20043;-74
2021/06/11 04:05:28;;;;;;;11.48;7.03;;;;;;;18.56;72.08;100596.22;4790827;30;20055;-78
2021/06/11 04:08:34;;;;;;;22.30;7.57;;;;;;;18.65;71.72;100598.69;4790889;30;20076;-80
2021/06/11 04:11:45;;;;;;;22.42;7.35;;;;;;;18.68;71.43;100600.19;4790749;30;20046;-82
2021/06/11 04:14:52;;;;;;;19.65;7.63;;;;;;;18.83;71.37;100612.84;4790734;30;20043;-80
2021/06/11 04:18:03;;;;;;;13.02;7.20;;;;;;;18.98;70.68;100612.03;4790626;30;20043;-80
2021/06/11 04:21:11;;;;;;;12.57;7.15;;;;;;;19.11;70.08;100612.28;4790636;30;20039;-79
2021/06/11 04:24:21;;;;;;;34.97;28.92;;;;;;;19.27;69.73;100615.69;4790089;29;20063;-78
2021/06/11 04:27:27;;;;;;;21.17;15.40;;;;;;;19.35;69.41;100612.06;4779465;30;20387;-77
2021/06/11 04:30:32;;;;;;;13.15;7.10;;;;;;;19.37;68.99;100597.25;4790449;30;20051;-79
2021/06/11 04:33:36;;;;;;;8.55;5.82;;;;;;;19.39;68.90;100599.78;4779596;30;20058;-80
2021/06/11 04:36:43;;;;;;;10.40;6.45;;;;;;;19.33;69.12;100606.78;4790330;30;20412;-81
2021/06/11 04:39:47;;;;;;;8.43;5.93;;;;;;;19.35;69.07;100618.34;4789372;30;20050;-77
2021/06/11 04:42:52;;;;;;;11.38;6.55;;;;;;;19.27;69.06;100618.41;4789045;29;20058;-74
2021/06/11 04:45:56;;;;;;;10.18;6.07;;;;;;;19.41;68.87;100622.22;4790177;30;20494;-80
2021/06/11 04:49:00;;;;;;;7.97;5.75;;;;;;;19.39;68.72;100636.03;4772523;30;20500;-78
2021/06/11 04:52:05;;;;;;;9.88;5.72;;;;;;;19.49;68.96;100635.75;4772216;30;20059;-80
2021/06/11 04:55:10;;;;;;;8.55;6.03;;;;;;;19.67;68.36;100639.00;4771950;30;20400;-80
2021/06/11 04:58:17;;;;;;;10.25;5.75;;;;;;;19.78;67.93;100630.34;4761102;30;20047;-77
2021/06/11 05:01:22;;;;;;;6.95;5.40;;;;;;;19.91;67.94;100627.81;4771816;30;20050;-79
2021/06/11 05:04:27;;;;;;;9.65;5.85;;;;;;;19.93;68.00;100639.38;4771901;30;20059;-80
2021/06/11 05:07:31;;;;;;;8.73;5.93;;;;;;;20.02;67.89;100640.13;4771994;30;20376;-75
2021/06/11 05:10:38;;;;;;;10.38;6.22;;;;;;;19.87;68.02;100637.41;4771841;30;20055;-77
2021/06/11 05:13:43;;;;;;;9.55;5.93;;;;;;;19.99;67.90;100659.56;4771835;30;20052;-81
2021/06/11 05:16:47;;;;;;;11.90;5.88;;;;;;;20.22;67.46;100665.75;4771805;30;20051;-77
2021/06/11 05:19:51;;;;;;;7.10;5.30;;;;;;;20.47;66.90;100675.34;4771674;30;20070;-79
2021/06/11 05:22:56;;;;;;;7.00;5.70;;;;;;;20.62;66.67;100668.00;4760611;30;20055;-81
2021/06/11 05:26:00;;;;;;;10.18;6.80;;;;;;;20.76;66.54;100672.56;4760596;30;20051;-78
2021/06/11 05:29:04;;;;;;;6.90;6.20;;;;;;;20.88;66.19;100674.78;4771601;30;20059;-77
2021/06/11 05:32:09;;;;;;;8.00;6.50;;;;;;;20.95;65.93;100683.88;4786097;30;20519;-82
2021/06/11 05:35:14;;;;;;;10.85;7.57;;;;;;;20.99;65.90;100691.50;4786283;29;20058;-76
2021/06/11 05:38:19;;;;;;;10.95;7.53;;;;;;;21.05;65.70;100701.69;4786984;30;20051;-83
2021/06/11 05:41:24;;;;;;;8.38;7.32;;;;;;;21.07;65.46;100699.59;4777472;30;20483;-78
2021/06/11 05:44:28;;;;;;;8.45;7.40;;;;;;;21.15;65.38;100693.16;4787970;30;20054;-80
2021/06/11 05:47:32;;;;;;;11.63;8.13;;;;;;;21.18;65.65;100710.00;4785967;30;20412;-77
2021/06/11 05:50:37;;;;;;;9.10;7.40;;;;;;;21.19;65.66;100714.41;4786519;30;20054;-80
2021/06/11 05:53:42;;;;;;;13.10;7.70;;;;;;;21.21;65.86;100712.34;4787343;30;20050;-79
2021/06/11 05:56:46;;;;;;;9.70;7.55;;;;;;;21.21;66.07;100712.34;4787670;30;20054;-78
2021/06/11 05:59:53;;;;;;;11.05;9.32;;;;;;;21.18;66.84;100706.44;4785776;30;20058;-76
2021/06/11 06:02:58;;;;;;;12.65;8.90;;;;;;;21.19;67.09;100719.88;4787224;29;20058;-79
2021/06/11 06:06:03;;;;;;;10.02;8.77;;;;;;;21.16;67.93;100703.88;4777938;30;20396;-74
2021/06/11 06:09:07;;;;;;;11.57;8.10;;;;;;;21.19;67.79;100708.97;4788931;30;20058;-73
2021/06/11 06:12:13;;;;;;;12.98;8.57;;;;;;;21.27;68.33;100710.72;4787988;29;20062;-74
2021/06/11 06:15:17;;;;;;;11.15;10.05;;;;;;;21.27;68.89;100722.50;4789158;30;20066;-75
2021/06/11 06:18:21;;;;;;;12.13;10.90;;;;;;;21.21;70.13;100715.06;4788064;29;20435;-74
2021/06/11 06:21:27;;;;;;;13.75;12.38;;;;;;;21.19;70.05;100700.78;4785993;29;20051;-78
2021/06/11 06:24:32;;;;;;;15.05;11.50;;;;;;;21.39;70.31;100715.47;4777738;29;20047;-79
2021/06/11 06:27:38;;;;;;;12.50;10.85;;;;;;;21.49;69.77;100717.00;4766732;30;20055;-77
2021/06/11 06:30:43;;;;;;;14.00;12.65;;;;;;;21.55;70.50;100713.50;4788051;30;20047;-77
2021/06/11 06:33:48;;;;;;;18.08;13.00;;;;;;;21.47;70.75;100705.44;4787238;30;20411;-73
2021/06/11 06:36:52;;;;;;;14.48;12.98;;;;;;;21.40;71.19;100710.84;4787971;30;20043;-74
2021/06/11 06:39:56;;;;;;;14.70;13.23;;;;;;;21.35;71.64;100703.25;4788667;30;20048;-75
2021/06/11 06:43:01;;;;;;;19.02;14.35;;;;;;;21.29;72.10;100698.56;4788492;30;20051;-76
2021/06/11 06:46:08;;;;;;;19.48;16.83;;;;;;;21.19;72.40;100697.19;4789354;29;20048;-74
2021/06/11 06:49:13;;;;;;;16.85;15.18;;;;;;;21.03;73.23;100701.00;4792039;30;20047;-73
2021/06/11 06:52:18;;;;;;;16.65;15.15;;;;;;;21.01;73.78;100697.59;4792144;30;20047;-75
2021/06/11 06:55:23;;;;;;;17.92;16.02;;;;;;;21.07;74.14;100712.41;4792036;30;20488;-72
2021/06/11 06:58:27;;;;;;;17.63;16.02;;;;;;;21.16;74.07;100714.81;4792165;30;20056;-75
2021/06/11 07:01:31;;;;;;;17.35;15.73;;;;;;;21.33;73.59;100718.97;4792002;30;20051;-74
2021/06/11 07:04:36;;;;;;;17.40;15.43;;;;;;;21.43;73.10;100715.91;4790293;29;20399;-74
2021/06/11 07:07:40;;;;;;;17.33;15.57;;;;;;;21.53;73.52;100718.34;4780279;30;20488;-78
2021/06/11 07:10:44;;;;;;;16.65;14.95;;;;;;;21.60;73.19;100719.22;4789794;29;20396;-73
2021/06/11 07:13:49;;;;;;;20.65;16.73;;;;;;;21.53;73.36;100710.13;4773698;30;20047;-73
2021/06/11 07:16:53;;;;;;;20.35;16.33;;;;;;;21.50;73.47;100710.53;4773774;30;20043;-77
2021/06/11 07:19:57;;;;;;;20.15;16.20;;;;;;;21.61;73.46;100709.97;4787473;30;20051;-76
2021/06/11 07:23:02;;;;;;;15.85;13.45;;;;;;;21.48;73.21;100701.69;4791595;30;20047;-79
2021/06/11 07:26:07;;;;;;;14.57;13.02;;;;;;;21.42;73.41;100703.31;4784934;29;20048;-77
2021/06/11 07:29:11;;;;;;;16.17;11.85;;;;;;;21.35;72.94;100710.59;4785464;30;20055;-77
2021/06/11 07:32:17;;;;;;;12.25;10.30;;;;;;;21.46;72.51;100718.25;4777702;30;20055;-76
2021/06/11 07:35:22;;;;;;;13.60;9.73;;;;;;;21.61;72.45;100710.81;4787580;29;20059;-74
2021/06/11 07:38:26;;;;;;;14.82;10.15;;;;;;;21.41;73.16;100701.59;4759860;30;20059;-74
2021/06/11 07:41:31;;;;;;;11.35;10.27;;;;;;;21.29;73.70;100695.84;4771498;30;20048;-76
2021/06/11 07:44:35;;;;;;;10.82;9.73;;;;;;;20.96;74.43;100686.41;4772714;30;20056;-75
2021/06/11 07:47:40;;;;;;;11.00;9.45;;;;;;;20.90;73.93;100678.16;4772351;30;20518;-77
2021/06/11 07:50:45;;;;;;;13.63;9.27;;;;;;;20.99;73.75;100663.34;4772617;30;20055;-74
2021/06/11 07:53:50;;;;;;;9.68;8.65;;;;;;;20.98;73.66;100654.34;4772874;30;20052;-76
2021/06/11 07:56:54;;;;;;;10.45;9.20;;;;;;;21.09;73.56;100653.84;4772221;30;20062;-77
2021/06/11 07:59:59;;;;;;;15.75;8.75;;;;;;;21.25;73.78;100669.97;4761771;30;20071;-75
2021/06/11 08:03:03;;;;;;;9.68;8.77;;;;;;;21.51;72.83;100666.59;4772338;30;20047;-74
2021/06/11 08:06:08;;;;;;;9.15;8.35;;;;;;;21.70;71.13;100651.44;4777694;29;20411;-76
2021/06/11 08:09:14;;;;;;;9.95;8.20;;;;;;;21.76;70.21;100647.88;4774622;30;20408;-75
2021/06/11 08:12:18;;;;;;;11.30;8.77;;;;;;;21.78;70.19;100657.56;4790073;30;20058;-73
2021/06/11 08:15:23;;;;;;;9.82;8.80;;;;;;;21.83;70.15;100656.97;4789903;30;20062;-75
2021/06/11 08:18:28;;;;;;;11.25;9.43;;;;;;;22.01;69.83;100663.66;4788984;29;20058;-74
2021/06/11 08:21:32;;;;;;;10.85;9.07;;;;;;;22.18;69.07;100664.16;4788629;29;20074;-74
2021/06/11 08:24:37;;;;;;;12.85;8.95;;;;;;;22.39;68.68;100674.97;4788537;29;20047;-74
2021/06/11 08:27:42;;;;;;;13.65;8.95;;;;;;;22.66;68.56;100679.53;4788516;29;20036;-74
2021/06/11 08:30:47;;;;;;;14.50;8.82;;;;;;;22.84;69.07;100680.91;4789224;29;20059;-76
2021/06/11 08:33:51;;;;;;;13.38;9.15;;;;;;;22.84;69.62;100689.13;4788098;29;20062;-76
2021/06/11 08:36:55;;;;;;;11.45;9.48;;;;;;;22.79;70.43;100688.88;4777385;29;20050;-74
2021/06/11 08:40:02;;;;;;;11.07;9.32;;;;;;;23.02;69.46;100681.13;4789509;30;20078;-76
2021/06/11 08:43:07;;;;;;;12.52;9.07;;;;;;;23.22;68.94;100682.03;4778246;30;20404;-76
2021/06/11 08:46:16;;;;;;;11.43;8.70;;;;;;;23.44;68.69;100691.78;4778472;30;20412;-76
2021/06/11 08:49:24;;;;;;;10.13;9.10;;;;;;;23.71;68.22;100695.34;4789110;30;20050;-76
2021/06/11 08:52:29;;;;;;;11.65;8.75;;;;;;;23.99;67.52;100698.72;4789098;30;20404;-77
2021/06/11 08:55:36;;;;;;;14.50;8.55;;;;;;;24.19;65.10;100713.28;4788620;29;20051;-76
2021/06/11 08:58:41;;;;;;;24.55;10.13;;;;;;;24.15;66.80;100713.91;4787953;29;20051;-73
2021/06/11 09:01:45;;;;;;;15.60;14.00;;;;;;;24.17;68.55;100720.03;4771536;30;20055;-76
2021/06/11 09:04:57;;;;;;;16.17;12.70;;;;;;;24.19;67.32;100720.66;4771241;30;20420;-73
2021/06/11 09:08:23;;;;;;;17.60;15.80;;;;;;;23.89;70.53;100733.94;4771311;30;20448;-78
2021/06/11 09:11:30;;;;;;;20.92;16.77;;;;;;;23.59;71.67;100727.19;4769547;30;20044;-76
2021/06/11 09:14:54;;;;;;;19.63;17.63;;;;;;;23.57;71.04;100724.69;4770862;30;20055;-76
2021/06/11 09:17:59;;;;;;;21.33;18.67;;;;;;;23.63;71.97;100737.53;4771414;30;20052;-74
2021/06/11 09:21:43;;;;;;;19.80;17.77;;;;;;;24.00;70.58;100725.06;4786255;29;20490;-74
2021/06/11 09:24:48;;;;;;;22.77;17.13;;;;;;;24.82;67.55;100729.97;4788786;30;20051;-74
2021/06/11 09:27:54;;;;;;;19.20;17.10;;;;;;;25.19;65.03;100735.50;4793617;29;20047;-76
2021/06/11 09:30:59;;;;;;;18.17;15.80;;;;;;;25.30;62.86;100727.59;4787247;29;20048;-74
2021/06/11 09:34:22;;;;;;;19.05;13.15;;;;;;;25.95;58.86;100720.78;4788709;30;20055;-77
2021/06/11 09:37:34;;;;;;;17.63;11.18;;;;;;;26.58;55.80;100714.00;4777407;30;20491;-76
2021/06/11 09:40:39;;;;;;;12.25;10.90;;;;;;;26.68;54.50;100711.53;4787932;29;20487;-74
2021/06/11 09:43:55;;;;;;;11.85;10.23;;;;;;;26.42;53.12;100717.34;4787594;29;20047;-78
2021/06/11 09:47:00;;;;;;;15.98;9.18;;;;;;;26.35;53.61;100714.69;4788246;30;20055;-74
2021/06/11 09:50:20;;;;;;;14.20;10.65;;;;;;;26.16;54.07;100701.13;4777657;30;20061;-75
2021/06/11 09:53:30;;;;;;;16.05;10.02;;;;;;;25.95;53.55;100709.78;4787636;30;20047;-74
2021/06/11 09:56:34;;;;;;;11.63;9.13;;;;;;;26.02;53.35;100703.16;4787759;30;20039;-75
2021/06/11 09:59:42;;;;;;;10.98;9.88;;;;;;;26.04;54.38;100697.41;4787683;30;20115;-75
2021/06/11 10:02:47;;;;;;;11.50;10.30;;;;;;;26.03;54.81;100701.22;4787853;30;20054;-76
2021/06/11 10:05:58;;;;;;;11.90;9.93;;;;;;;26.22;53.28;100700.22;4788427;30;20048;-77
2021/06/11 10:09:03;;;;;;;10.82;9.73;;;;;;;26.57;54.56;100698.53;4787886;30;20055;-76
2021/06/11 10:12:08;;;;;;;14.82;10.18;;;;;;;26.27;54.45;100698.44;4788207;30;20051;-75
2021/06/11 10:15:14;;;;;;;9.73;8.45;;;;;;;26.35;52.55;100702.81;4788069;30;20047;-76
2021/06/11 10:18:20;;;;;;;12.07;10.40;;;;;;;26.34;54.06;100699.22;4785078;30;20070;-74
2021/06/11 10:21:28;;;;;;;12.55;10.30;;;;;;;26.63;54.98;100685.75;4790387;29;20051;-74
2021/06/11 10:24:34;;;;;;;12.68;10.40;;;;;;;26.89;54.76;100694.53;4782179;30;20055;-73
2021/06/11 10:27:43;;;;;;;9.88;8.90;;;;;;;27.01;53.21;100689.09;4793357;30;20051;-72
2021/06/11 10:30:49;;;;;;;10.40;9.35;;;;;;;26.99;52.67;100696.75;4793142;30;20055;-77
2021/06/11 10:34:00;;;;;;;14.68;9.30;;;;;;;26.96;52.00;100692.53;4793460;30;20065;-76
2021/06/11 10:37:35;;;;;;;9.63;7.47;;;;;;;26.95;52.59;100693.63;4793308;30;20483;-74
2021/06/11 10:40:41;;;;;;;9.75;8.75;;;;;;;26.96;52.28;100683.44;4793747;30;20559;-75
2021/06/11 10:43:46;;;;;;;7.88;7.07;;;;;;;26.53;51.93;100683.56;4792587;30;20074;-75
2021/06/11 10:46:50;;;;;;;7.80;7.05;;;;;;;26.66;52.12;100674.28;4793202;30;20054;-75
2021/06/11 10:50:00;;;;;;;8.52;5.95;;;;;;;26.60;51.79;100687.06;4793694;30;20061;-74
2021/06/11 10:53:28;;;;;;;8.23;5.07;;;;;;;26.69;50.09;100684.84;4792515;30;20078;-78
2021/06/11 10:56:33;;;;;;;7.63;4.80;;;;;;;26.71;50.12;100683.53;4792845;30;20058;-74
2021/06/11 10:59:38;;;;;;;8.52;5.45;;;;;;;26.72;50.88;100673.34;4775626;30;20140;-76
2021/06/11 11:02:48;;;;;;;8.60;6.15;;;;;;;26.55;50.66;100672.28;4782219;30;20058;-75
2021/06/11 11:05:53;;;;;;;7.97;6.00;;;;;;;26.62;51.63;100676.66;4785563;30;20082;-76
2021/06/11 11:08:59;;;;;;;7.95;5.30;;;;;;;26.70;51.55;100681.84;4785604;30;20514;-74
2021/06/11 11:12:03;;;;;;;6.78;5.55;;;;;;;26.84;50.50;100668.75;4785767;29;20507;-75
2021/06/11 11:15:08;;;;;;;6.53;5.85;;;;;;;26.87;50.43;100669.16;4785477;29;20404;-76
2021/06/11 11:18:24;;;;;;;7.75;5.50;;;;;;;26.86;49.97;100666.63;4786381;29;20066;-73
2021/06/11 11:21:38;;;;;;;6.68;5.25;;;;;;;26.60;50.32;100673.28;4792922;29;20587;-76
2021/06/11 11:24:43;;;;;;;6.22;5.60;;;;;;;26.80;50.15;100664.81;4775626;30;20062;-75
2021/06/11 11:27:53;;;;;;;7.50;5.65;;;;;;;26.77;48.46;100651.47;4775846;30;20055;-75
2021/06/11 11:30:57;;;;;;;4.90;4.40;;;;;;;26.76;48.99;100652.56;4776267;30;20128;-78
2021/06/11 11:34:03;;;;;;;7.30;5.22;;;;;;;26.67;49.17;100642.91;4790311;29;20518;-78
2021/06/11 11:37:07;;;;;;;7.65;5.07;;;;;;;26.68;48.77;100641.84;4791419;30;20062;-77
2021/06/11 11:40:12;;;;;;;9.45;5.80;;;;;;;26.87;48.02;100644.34;4790913;30;20054;-78
2021/06/11 11:43:16;;;;;;;6.43;5.70;;;;;;;27.05;48.59;100643.47;4791031;30;20058;-75
2021/06/11 11:46:21;;;;;;;6.72;5.30;;;;;;;27.12;49.02;100635.91;4790711;30;20054;-76
2021/06/11 11:49:26;;;;;;;7.95;6.25;;;;;;;27.07;48.33;100633.03;4790892;30;20066;-74
2021/06/11 11:52:32;;;;;;;7.50;5.80;;;;;;;27.06;48.37;100626.69;4789790;30;20407;-76
2021/06/11 11:55:36;;;;;;;8.35;5.78;;;;;;;27.09;48.22;100625.38;4790713;30;20415;-76
2021/06/11 11:58:41;;;;;;;6.15;5.55;;;;;;;26.94;49.16;100623.03;4790375;30;20062;-76
2021/06/11 12:01:45;;;;;;;10.95;5.80;;;;;;;26.86;49.34;100615.09;4777535;29;20506;-77
2021/06/11 12:04:50;;;;;;;16.20;5.75;;;;;;;26.84;48.06;100599.88;4790609;30;20450;-80
2021/06/11 12:07:55;;;;;;;6.75;5.07;;;;;;;26.95;46.68;100607.34;4773148;30;20623;-75
2021/06/11 12:10:59;;;;;;;7.25;4.50;;;;;;;26.98;46.19;100599.47;4788296;30;20058;-75
2021/06/11 12:14:03;;;;;;;5.43;4.40;;;;;;;27.09;46.83;100595.03;4788339;30;20420;-75
2021/06/11 12:17:08;;;;;;;4.90;4.40;;;;;;;27.09;47.73;100590.38;4788279;30;20057;-74
2021/06/11 12:20:14;;;;;;;5.65;4.60;;;;;;;27.13;46.76;100587.16;4786555;29;20074;-73
2021/06/11 12:23:18;;;;;;;5.47;4.65;;;;;;;27.27;46.62;100572.91;4783975;29;20518;-75
2021/06/11 12:26:22;;;;;;;8.20;4.60;;;;;;;27.21;45.96;100573.84;4768463;30;20058;-74
2021/06/11 12:29:27;;;;;;;7.13;3.88;;;;;;;27.28;44.18;100573.75;4789480;30;20055;-75
2021/06/11 12:32:32;;;;;;;4.88;4.03;;;;;;;27.34;44.50;100567.28;4787243;30;20579;-73
2021/06/11 12:35:36;;;;;;;8.13;5.60;;;;;;;27.33;45.03;100560.09;4772285;30;20070;-76
2021/06/11 12:38:41;;;;;;;5.60;4.47;;;;;;;27.20;45.59;100554.81;4789046;30;20054;-74
2021/06/11 12:41:53;;;;;;;5.93;4.93;;;;;;;27.29;45.93;100551.44;4789890;30;20070;-74
2021/06/11 12:44:57;;;;;;;5.38;4.38;;;;;;;27.36;44.69;100541.16;4789534;29;20051;-75
2021/06/11 12:48:02;;;;;;;4.75;3.58;;;;;;;27.36;44.04;100545.81;4787561;30;20059;-74
2021/06/11 12:51:06;;;;;;;5.43;3.72;;;;;;;27.47;44.24;100534.84;4789298;29;20404;-74
2021/06/11 12:54:11;;;;;;;5.20;3.88;;;;;;;27.64;43.58;100541.31;4789656;30;20514;-74
2021/06/11 12:57:16;;;;;;;7.55;4.10;;;;;;;28.01;41.93;100529.97;4789808;30;20054;-74
2021/06/11 13:00:20;;;;;;;5.45;4.00;;;;;;;28.12;40.78;100526.38;4787326;29;20506;-74
2021/06/11 13:03:24;;;;;;;7.15;4.28;;;;;;;28.08;41.71;100531.53;4807688;29;20515;-73
2021/06/11 13:06:34;;;;;;;5.35;3.58;;;;;;;28.18;41.71;100517.94;4807381;29;20518;-73
2021/06/11 13:09:38;;;;;;;3.97;3.08;;;;;;;28.24;39.55;100521.63;4807490;29;20062;-74
2021/06/11 13:12:42;;;;;;;4.72;3.28;;;;;;;28.29;40.04;100521.75;4807326;29;20054;-73
2021/06/11 13:15:47;;;;;;;7.97;3.67;;;;;;;28.40;40.21;100523.59;4792101;29;20046;-77
2021/06/11 13:18:51;;;;;;;5.22;3.33;;;;;;;28.39;41.03;100521.94;4774875;30;20059;-73
2021/06/11 13:21:56;;;;;;;5.07;3.72;;;;;;;28.47;40.49;100513.22;4789135;30;20062;-72
2021/06/11 13:25:00;;;;;;;6.75;3.60;;;;;;;28.63;40.46;100500.59;4789104;30;20054;-75
2021/06/11 13:28:05;;;;;;;7.35;4.13;;;;;;;28.70;40.03;100509.53;4789139;30;20106;-78
2021/06/11 13:31:09;;;;;;;5.53;3.80;;;;;;;28.62;40.38;100502.50;4789207;30;20062;-77
2021/06/11 13:34:13;;;;;;;4.28;2.90;;;;;;;28.64;39.85;100500.31;4788322;29;20538;-74
2021/06/11 13:37:18;;;;;;;9.93;3.65;;;;;;;28.33;39.49;100498.06;4778107;30;20066;-75
2021/06/11 13:40:22;;;;;;;5.65;3.42;;;;;;;28.44;41.65;100502.69;4776450;30;20058;-77
2021/06/11 13:43:27;;;;;;;7.82;3.28;;;;;;;28.27;39.36;100510.91;4778026;30;20503;-74
2021/06/11 13:46:32;;;;;;;6.22;2.80;;;;;;;28.24;39.80;100510.59;4788577;30;20051;-78
2021/06/11 13:49:37;;;;;;;5.38;3.03;;;;;;;28.35;38.94;100513.28;4788929;30;20411;-73
2021/06/11 13:52:41;;;;;;;3.83;2.58;;;;;;;28.42;39.63;100515.09;4779489;29;20062;-73
2021/06/11 13:55:45;;;;;;;9.43;2.72;;;;;;;28.33;39.08;100522.91;4788354;30;20063;-74
2021/06/11 13:58:50;;;;;;;6.60;3.10;;;;;;;28.22;39.57;100521.03;4788650;30;20067;-74
2021/06/11 14:01:55;;;;;;;3.28;2.60;;;;;;;28.13;39.03;100519.75;4788645;30;20058;-74
2021/06/11 14:04:59;;;;;;;8.02;2.80;;;;;;;28.11;38.67;100520.00;4787990;29;20062;-77
2021/06/11 14:08:03;;;;;;;6.53;3.17;;;;;;;28.16;40.92;100511.81;4788555;30;20082;-77
2021/06/11 14:11:07;;;;;;;3.85;2.78;;;;;;;27.94;39.26;100518.22;4777695;30;20135;-73
2021/06/11 14:14:12;;;;;;;5.05;2.72;;;;;;;27.90;39.96;100506.00;4777473;30;20054;-75
2021/06/11 14:17:16;;;;;;;3.92;2.97;;;;;;;28.00;40.84;100503.44;4788683;30;20074;-73
2021/06/11 14:20:21;;;;;;;11.38;3.00;;;;;;;28.07;41.52;100490.38;4777273;30;20538;-73
2021/06/11 14:23:25;;;;;;;7.72;3.13;;;;;;;27.95;40.78;100495.06;4787257;29;20062;-72